Santa Teresa, NM

11:08 PM MDT on August 20, 2014 (GMT -0600)
Santa Teresa | Change Station
CLOSE
Current Station
Personal Weather Station
Location: Santa Teresa, NM
Elevation: 3811 ft
Nearby Weather Stations

Elev 3811 ft 31.87 °N, 106.65 °W | Updated 5 seconds ago

Clear
Clear
77.4 °F
Feels Like 78 °F
N
0.0
Wind Variable Wind from West
Gusts 1.0 mph

Today
High -- | Low -- °F
--% Chance of Precip.
Yesterday
High -- | Low -- °F
Precip. -- in
6:34 AM 7:44 PM
Waning Crescent, 16% visible
Pressure 29.82 in
Visibility 10.0 miles
Clouds Clear
Heat Index 78 °F
Dew Point 50 °F
Humidity 39%
Rainfall 0.00 in
Snow Depth Not available.
UV 0 out of 12
Pollen 6.90 out of 12
Air Quality Not available.
Flu Activity Not available.
METAR KBIF 210356Z AUTO 26007G16KT 10SM CLR 29/06 A3002 RMK AO2 SLP098 T02880063 $

More Conditions Fewer Conditions

Pressure 29.82 in
Visibility 10.0 miles
Clouds Clear
Heat Index 78 °F
Dew Point 50 °F
Humidity 39%
Rainfall 0.00 in
Snow Depth Not available.
UV 0 out of 12
Pollen 6.90 out of 12
Air Quality Not available.
Flu Activity Not available.
METAR KBIF 210356Z AUTO 26007G16KT 10SM CLR 29/06 A3002 RMK AO2 SLP098 T02880063 $

More Conditions Fewer Conditions

10-Day Weather Forecast

Almanac

Astronomy

Aug. 20, 2014 Rise Set
Actual Time 6:34 AM MDT 7:44 PM MDT
Civil Twilight 6:09 AM MDT 8:10 PM MDT
Nautical Twilight 5:38 AM MDT 8:40 PM MDT
Astronomical Twilight 5:07 AM MDT 9:11 PM MDT
Moon 2:23 AM MDT (8/20) 4:25 PM MDT (8/20)
Length of Visible Light 14h 00m
Length of Day
13h 10m
Tomorrow will be 1m 45s shorter.
Waning Crescent, 16% of the Moon is Illuminated
Aug 21
Waning Crescent
Aug 25
New
Sep 2
First Quarter
Sep 8
Full
Sep 15
Last Quarter

Yesterday's Extremes

State Highs State Lows

Community

WunderPhotos

Upload Photos

1,745,857 photos uploaded!

Nearby

Snow Depth

Station Depth Elevation
McKnight Cabin 0 in 9240 ft
Sierra Blanca 1 in 10280 ft
Silver Creek Divide 1 in 9000 ft
Santa Fe 1 in 11445 ft
Wesner Springs 2 in 11120 ft

Earthquake Activity

City Distance Mag. Time & Date
No recent earthquake activity has been reported nearby.
Minimum magnitude displayed is 2.5.

Coastal Water Temperatures

Place Temperature
No Stations Reporting

Nearby Weather Stations